sensor_id;sensor_type;location;lat;lon;timestamp;P1;durP1;ratioP1;P2;durP2;ratioP2
49450;SDS011;35336;48.400;10.886;2023-06-05T00:00:02;5.90;;;3.87;;
49450;SDS011;35336;48.400;10.886;2023-06-05T00:00:18;5.82;;;4.20;;
49450;SDS011;35336;48.400;10.886;2023-06-05T00:00:33;7.27;;;4.20;;
49450;SDS011;35336;48.400;10.886;2023-06-05T00:00:48;7.93;;;4.07;;
49450;SDS011;35336;48.400;10.886;2023-06-05T00:01:06;6.40;;;3.80;;
49450;SDS011;35336;48.400;10.886;2023-06-05T00:01:21;6.43;;;3.88;;
49450;SDS011;35336;48.400;10.886;2023-06-05T00:01:36;7.93;;;4.80;;
49450;SDS011;35336;48.400;10.886;2023-06-05T00:01:54;7.03;;;4.50;;
49450;SDS011;35336;48.400;10.886;2023-06-05T00:02:09;5.90;;;3.60;;
49450;SDS011;35336;48.400;10.886;2023-06-05T00:02:25;6.13;;;3.57;;
49450;SDS011;35336;48.400;10.886;2023-06-05T00:02:42;5.82;;;3.78;;
49450;SDS011;35336;48.400;10.886;2023-06-05T00:02:58;8.80;;;3.80;;
49450;SDS011;35336;48.400;10.886;2023-06-05T00:03:18;11.85;;;3.70;;
49450;SDS011;35336;48.400;10.886;2023-06-05T00:03:35;4.97;;;3.37;;
49450;SDS011;35336;48.400;10.886;2023-06-05T00:03:51;5.45;;;3.55;;
49450;SDS011;35336;48.400;10.886;2023-06-05T00:04:06;6.90;;;3.60;;
49450;SDS011;35336;48.400;10.886;2023-06-05T00:04:21;7.05;;;3.60;;
49450;SDS011;35336;48.400;10.886;2023-06-05T00:04:37;6.20;;;3.70;;
49450;SDS011;35336;48.400;10.886;2023-06-05T00:04:52;7.07;;;3.80;;
49450;SDS011;35336;48.400;10.886;2023-06-05T00:05:07;6.43;;;3.73;;
49450;SDS011;35336;48.400;10.886;2023-06-05T00:05:22;5.20;;;3.60;;
49450;SDS011;35336;48.400;10.886;2023-06-05T00:05:40;5.67;;;3.40;;
49450;SDS011;35336;48.400;10.886;2023-06-05T00:05:55;6.07;;;3.80;;
49450;SDS011;35336;48.400;10.886;2023-06-05T00:06:10;5.72;;;4.05;;
49450;SDS011;35336;48.400;10.886;2023-06-05T00:06:26;7.53;;;3.90;;
49450;SDS011;35336;48.400;10.886;2023-06-05T00:06:41;7.20;;;3.73;;
49450;SDS011;35336;48.400;10.886;2023-06-05T00:06:59;5.40;;;3.58;;
49450;SDS011;35336;48.400;10.886;2023-06-05T00:07:19;7.95;;;3.70;;
49450;SDS011;35336;48.400;10.886;2023-06-05T00:07:37;7.30;;;3.72;;
49450;SDS011;35336;48.400;10.886;2023-06-05T00:07:54;5.63;;;3.57;;
49450;SDS011;35336;48.400;10.886;2023-06-05T00:08:12;4.95;;;3.80;;
49450;SDS011;35336;48.400;10.886;2023-06-05T00:08:27;6.50;;;4.00;;
49450;SDS011;35336;48.400;10.886;2023-06-05T00:08:42;7.07;;;3.60;;
49450;SDS011;35336;48.400;10.886;2023-06-05T00:08:58;6.72;;;3.65;;
49450;SDS011;35336;48.400;10.886;2023-06-05T00:09:13;5.90;;;3.80;;
49450;SDS011;35336;48.400;10.886;2023-06-05T00:09:28;5.43;;;3.80;;
49450;SDS011;35336;48.400;10.886;2023-06-05T00:09:44;5.93;;;3.60;;
49450;SDS011;35336;48.400;10.886;2023-06-05T00:09:59;7.13;;;3.50;;
49450;SDS011;35336;48.400;10.886;2023-06-05T00:10:14;7.40;;;3.63;;
49450;SDS011;35336;48.400;10.886;2023-06-05T00:10:29;5.40;;;3.38;;
49450;SDS011;35336;48.400;10.886;2023-06-05T00:10:45;5.30;;;3.30;;
49450;SDS011;35336;48.400;10.886;2023-06-05T00:11:00;6.33;;;3.73;;
49450;SDS011;35336;48.400;10.886;2023-06-05T00:11:18;7.40;;;4.00;;
49450;SDS011;35336;48.400;10.886;2023-06-05T00:11:33;6.68;;;3.90;;
49450;SDS011;35336;48.400;10.886;2023-06-05T00:11:49;7.13;;;4.13;;
49450;SDS011;35336;48.400;10.886;2023-06-05T00:12:04;7.87;;;4.37;;
49450;SDS011;35336;48.400;10.886;2023-06-05T00:12:20;4.75;;;3.53;;
49450;SDS011;35336;48.400;10.886;2023-06-05T00:12:38;4.47;;;3.33;;
49450;SDS011;35336;48.400;10.886;2023-06-05T00:12:59;5.10;;;4.03;;
49450;SDS011;35336;48.400;10.886;2023-06-05T00:13:14;9.10;;;4.40;;
49450;SDS011;35336;48.400;10.886;2023-06-05T00:13:29;8.43;;;4.03;;
49450;SDS011;35336;48.400;10.886;2023-06-05T00:13:47;8.25;;;3.88;;
49450;SDS011;35336;48.400;10.886;2023-06-05T00:14:03;7.28;;;3.65;;
49450;SDS011;35336;48.400;10.886;2023-06-05T00:14:18;4.77;;;3.67;;
49450;SDS011;35336;48.400;10.886;2023-06-05T00:14:33;4.90;;;3.70;;
49450;SDS011;35336;48.400;10.886;2023-06-05T00:14:49;6.97;;;3.70;;
49450;SDS011;35336;48.400;10.886;2023-06-05T00:15:04;6.93;;;3.80;;
49450;SDS011;35336;48.400;10.886;2023-06-05T00:15:20;4.90;;;3.85;;
49450;SDS011;35336;48.400;10.886;2023-06-05T00:15:35;6.40;;;3.80;;
49450;SDS011;35336;48.400;10.886;2023-06-05T00:15:51;7.60;;;4.00;;
49450;SDS011;35336;48.400;10.886;2023-06-05T00:16:08;6.60;;;4.05;;
49450;SDS011;35336;48.400;10.886;2023-06-05T00:16:26;8.15;;;4.07;;
49450;SDS011;35336;48.400;10.886;2023-06-05T00:16:43;6.50;;;3.78;;
49450;SDS011;35336;48.400;10.886;2023-06-05T00:16:59;5.13;;;3.55;;
49450;SDS011;35336;48.400;10.886;2023-06-05T00:17:14;6.00;;;3.90;;
49450;SDS011;35336;48.400;10.886;2023-06-05T00:17:34;6.00;;;4.13;;
49450;SDS011;35336;48.400;10.886;2023-06-05T00:17:52;5.25;;;3.92;;
49450;SDS011;35336;48.400;10.886;2023-06-05T00:18:07;4.87;;;3.70;;
49450;SDS011;35336;48.400;10.886;2023-06-05T00:18:28;5.90;;;3.65;;
49450;SDS011;35336;48.400;10.886;2023-06-05T00:18:46;6.60;;;3.88;;
49450;SDS011;35336;48.400;10.886;2023-06-05T00:19:03;8.15;;;4.10;;
49450;SDS011;35336;48.400;10.886;2023-06-05T00:19:19;7.10;;;3.70;;
49450;SDS011;35336;48.400;10.886;2023-06-05T00:19:34;7.90;;;3.88;;
49450;SDS011;35336;48.400;10.886;2023-06-05T00:19:52;8.50;;;4.13;;
49450;SDS011;35336;48.400;10.886;2023-06-05T00:20:12;7.13;;;4.25;;
49450;SDS011;35336;48.400;10.886;2023-06-05T00:20:27;6.25;;;3.70;;
49450;SDS011;35336;48.400;10.886;2023-06-05T00:20:43;7.83;;;3.77;;
49450;SDS011;35336;48.400;10.886;2023-06-05T00:20:59;8.45;;;4.10;;
49450;SDS011;35336;48.400;10.886;2023-06-05T00:21:19;5.45;;;3.90;;
49450;SDS011;35336;48.400;10.886;2023-06-05T00:21:35;4.70;;;3.85;;
49450;SDS011;35336;48.400;10.886;2023-06-05T00:21:50;4.32;;;3.55;;
49450;SDS011;35336;48.400;10.886;2023-06-05T00:22:08;4.97;;;3.60;;
49450;SDS011;35336;48.400;10.886;2023-06-05T00:22:23;5.63;;;3.70;;
49450;SDS011;35336;48.400;10.886;2023-06-05T00:22:40;4.97;;;3.67;;
49450;SDS011;35336;48.400;10.886;2023-06-05T00:22:57;4.47;;;3.60;;
49450;SDS011;35336;48.400;10.886;2023-06-05T00:23:15;5.97;;;3.40;;
49450;SDS011;35336;48.400;10.886;2023-06-05T00:23:30;7.38;;;3.60;;
49450;SDS011;35336;48.400;10.886;2023-06-05T00:23:46;6.23;;;3.90;;
49450;SDS011;35336;48.400;10.886;2023-06-05T00:24:01;5.90;;;3.83;;
49450;SDS011;35336;48.400;10.886;2023-06-05T00:24:16;4.83;;;3.50;;
49450;SDS011;35336;48.400;10.886;2023-06-05T00:24:32;3.90;;;3.50;;
49450;SDS011;35336;48.400;10.886;2023-06-05T00:24:47;4.33;;;3.67;;
49450;SDS011;35336;48.400;10.886;2023-06-05T00:25:05;5.63;;;3.67;;
49450;SDS011;35336;48.400;10.886;2023-06-05T00:25:20;7.32;;;4.07;;
49450;SDS011;35336;48.400;10.886;2023-06-05T00:25:36;7.37;;;3.87;;
49450;SDS011;35336;48.400;10.886;2023-06-05T00:25:51;6.72;;;3.67;;
49450;SDS011;35336;48.400;10.886;2023-06-05T00:26:06;8.70;;;3.70;;
49450;SDS011;35336;48.400;10.886;2023-06-05T00:26:24;8.30;;;3.42;;
49450;SDS011;35336;48.400;10.886;2023-06-05T00:26:39;7.78;;;3.60;;
49450;SDS011;35336;48.400;10.886;2023-06-05T00:26:56;7.65;;;3.80;;
49450;SDS011;35336;48.400;10.886;2023-06-05T00:27:12;5.10;;;3.70;;
49450;SDS011;35336;48.400;10.886;2023-06-05T00:27:27;6.07;;;3.60;;
49450;SDS011;35336;48.400;10.886;2023-06-05T00:27:43;9.83;;;3.60;;
49450;SDS011;35336;48.400;10.886;2023-06-05T00:28:00;9.73;;;3.65;;
49450;SDS011;35336;48.400;10.886;2023-06-05T00:28:16;7.22;;;3.45;;
49450;SDS011;35336;48.400;10.886;2023-06-05T00:28:31;6.87;;;3.43;;
49450;SDS011;35336;48.400;10.886;2023-06-05T00:28:47;5.43;;;3.40;;
49450;SDS011;35336;48.400;10.886;2023-06-05T00:29:07;5.32;;;3.50;;
49450;SDS011;35336;48.400;10.886;2023-06-05T00:29:24;5.35;;;3.70;;
49450;SDS011;35336;48.400;10.886;2023-06-05T00:29:45;4.70;;;3.60;;
49450;SDS011;35336;48.400;10.886;2023-06-05T00:30:03;4.57;;;3.45;;
49450;SDS011;35336;48.400;10.886;2023-06-05T00:30:21;7.70;;;4.10;;
49450;SDS011;35336;48.400;10.886;2023-06-05T00:30:36;7.50;;;4.00;;
49450;SDS011;35336;48.400;10.886;2023-06-05T00:30:52;5.63;;;3.77;;
49450;SDS011;35336;48.400;10.886;2023-06-05T00:31:07;6.13;;;3.78;;
49450;SDS011;35336;48.400;10.886;2023-06-05T00:31:25;6.40;;;3.70;;
49450;SDS011;35336;48.400;10.886;2023-06-05T00:31:40;6.28;;;3.63;;
49450;SDS011;35336;48.400;10.886;2023-06-05T00:31:57;7.20;;;3.80;;
49450;SDS011;35336;48.400;10.886;2023-06-05T00:32:12;6.57;;;4.03;;
49450;SDS011;35336;48.400;10.886;2023-06-05T00:32:27;7.78;;;4.07;;
49450;SDS011;35336;48.400;10.886;2023-06-05T00:32:44;7.70;;;3.88;;
49450;SDS011;35336;48.400;10.886;2023-06-05T00:33:00;4.97;;;3.37;;
49450;SDS011;35336;48.400;10.886;2023-06-05T00:33:18;8.23;;;3.67;;
49450;SDS011;35336;48.400;10.886;2023-06-05T00:33:33;10.18;;;4.43;;
49450;SDS011;35336;48.400;10.886;2023-06-05T00:33:50;7.00;;;4.00;;
49450;SDS011;35336;48.400;10.886;2023-06-05T00:34:08;6.07;;;3.58;;
49450;SDS011;35336;48.400;10.886;2023-06-05T00:34:23;5.17;;;3.43;;
49450;SDS011;35336;48.400;10.886;2023-06-05T00:34:41;4.43;;;3.10;;
49450;SDS011;35336;48.400;10.886;2023-06-05T00:34:56;4.85;;;3.30;;
49450;SDS011;35336;48.400;10.886;2023-06-05T00:35:11;5.53;;;3.73;;
49450;SDS011;35336;48.400;10.886;2023-06-05T00:35:26;5.85;;;3.75;;
49450;SDS011;35336;48.400;10.886;2023-06-05T00:35:44;5.32;;;3.50;;
49450;SDS011;35336;48.400;10.886;2023-06-05T00:35:59;5.30;;;3.60;;
49450;SDS011;35336;48.400;10.886;2023-06-05T00:36:17;6.22;;;3.80;;
49450;SDS011;35336;48.400;10.886;2023-06-05T00:36:32;9.65;;;3.75;;
49450;SDS011;35336;48.400;10.886;2023-06-05T00:36:48;10.00;;;3.73;;
49450;SDS011;35336;48.400;10.886;2023-06-05T00:37:03;6.97;;;3.80;;
49450;SDS011;35336;48.400;10.886;2023-06-05T00:37:19;5.07;;;3.80;;
49450;SDS011;35336;48.400;10.886;2023-06-05T00:37:35;4.00;;;3.58;;
49450;SDS011;35336;48.400;10.886;2023-06-05T00:37:50;4.97;;;3.43;;
49450;SDS011;35336;48.400;10.886;2023-06-05T00:38:05;5.43;;;3.77;;
49450;SDS011;35336;48.400;10.886;2023-06-05T00:38:20;5.13;;;3.97;;
49450;SDS011;35336;48.400;10.886;2023-06-05T00:38:41;5.57;;;3.95;;
49450;SDS011;35336;48.400;10.886;2023-06-05T00:38:56;8.30;;;3.80;;
49450;SDS011;35336;48.400;10.886;2023-06-05T00:39:11;8.70;;;3.70;;
49450;SDS011;35336;48.400;10.886;2023-06-05T00:39:26;5.20;;;3.80;;
49450;SDS011;35336;48.400;10.886;2023-06-05T00:39:44;5.78;;;3.85;;
49450;SDS011;35336;48.400;10.886;2023-06-05T00:39:59;5.72;;;3.63;;
49450;SDS011;35336;48.400;10.886;2023-06-05T00:40:17;9.18;;;3.65;;
49450;SDS011;35336;48.400;10.886;2023-06-05T00:40:33;10.30;;;4.18;;
49450;SDS011;35336;48.400;10.886;2023-06-05T00:40:48;5.13;;;4.07;;
49450;SDS011;35336;48.400;10.886;2023-06-05T00:41:03;5.03;;;3.63;;
49450;SDS011;35336;48.400;10.886;2023-06-05T00:41:21;4.97;;;3.70;;
49450;SDS011;35336;48.400;10.886;2023-06-05T00:41:36;5.30;;;3.90;;
49450;SDS011;35336;48.400;10.886;2023-06-05T00:41:52;6.45;;;4.00;;
49450;SDS011;35336;48.400;10.886;2023-06-05T00:42:09;5.67;;;4.00;;
49450;SDS011;35336;48.400;10.886;2023-06-05T00:42:25;5.32;;;3.80;;
49450;SDS011;35336;48.400;10.886;2023-06-05T00:42:40;5.50;;;3.53;;
49450;SDS011;35336;48.400;10.886;2023-06-05T00:42:56;5.68;;;3.50;;
49450;SDS011;35336;48.400;10.886;2023-06-05T00:43:13;5.55;;;3.72;;
49450;SDS011;35336;48.400;10.886;2023-06-05T00:43:29;5.60;;;3.97;;
49450;SDS011;35336;48.400;10.886;2023-06-05T00:43:44;5.80;;;3.70;;
49450;SDS011;35336;48.400;10.886;2023-06-05T00:43:59;5.37;;;3.57;;
49450;SDS011;35336;48.400;10.886;2023-06-05T00:44:17;5.10;;;3.93;;
49450;SDS011;35336;48.400;10.886;2023-06-05T00:44:32;4.70;;;4.05;;
49450;SDS011;35336;48.400;10.886;2023-06-05T00:44:50;4.65;;;3.65;;
49450;SDS011;35336;48.400;10.886;2023-06-05T00:45:05;6.93;;;3.85;;
49450;SDS011;35336;48.400;10.886;2023-06-05T00:45:21;5.93;;;3.83;;
49450;SDS011;35336;48.400;10.886;2023-06-05T00:45:36;4.97;;;3.87;;
49450;SDS011;35336;48.400;10.886;2023-06-05T00:45:53;5.77;;;3.97;;
49450;SDS011;35336;48.400;10.886;2023-06-05T00:46:20;5.63;;;3.92;;
49450;SDS011;35336;48.400;10.886;2023-06-05T00:46:38;4.70;;;3.88;;
49450;SDS011;35336;48.400;10.886;2023-06-05T00:46:55;6.28;;;3.88;;
49450;SDS011;35336;48.400;10.886;2023-06-05T00:47:13;6.78;;;4.03;;
49450;SDS011;35336;48.400;10.886;2023-06-05T00:47:29;6.13;;;3.97;;
49450;SDS011;35336;48.400;10.886;2023-06-05T00:47:45;4.57;;;3.73;;
49450;SDS011;35336;48.400;10.886;2023-06-05T00:48:03;4.32;;;3.40;;
49450;SDS011;35336;48.400;10.886;2023-06-05T00:48:24;6.18;;;3.13;;
49450;SDS011;35336;48.400;10.886;2023-06-05T00:48:39;6.22;;;3.30;;
49450;SDS011;35336;48.400;10.886;2023-06-05T00:48:55;5.25;;;3.60;;
49450;SDS011;35336;48.400;10.886;2023-06-05T00:49:13;7.28;;;3.75;;
49450;SDS011;35336;48.400;10.886;2023-06-05T00:49:30;7.28;;;3.70;;
49450;SDS011;35336;48.400;10.886;2023-06-05T00:49:46;5.63;;;3.72;;
49450;SDS011;35336;48.400;10.886;2023-06-05T00:50:02;4.20;;;3.60;;
49450;SDS011;35336;48.400;10.886;2023-06-05T00:50:18;4.18;;;3.40;;
49450;SDS011;35336;48.400;10.886;2023-06-05T00:50:34;6.53;;;3.60;;
49450;SDS011;35336;48.400;10.886;2023-06-05T00:50:49;7.38;;;3.50;;
49450;SDS011;35336;48.400;10.886;2023-06-05T00:51:08;6.93;;;3.60;;
49450;SDS011;35336;48.400;10.886;2023-06-05T00:51:24;4.90;;;3.83;;
49450;SDS011;35336;48.400;10.886;2023-06-05T00:51:40;5.37;;;3.77;;
49450;SDS011;35336;48.400;10.886;2023-06-05T00:51:58;5.78;;;3.58;;
49450;SDS011;35336;48.400;10.886;2023-06-05T00:52:14;6.63;;;3.50;;
49450;SDS011;35336;48.400;10.886;2023-06-05T00:52:30;7.18;;;3.53;;
49450;SDS011;35336;48.400;10.886;2023-06-05T00:52:47;5.45;;;3.58;;
49450;SDS011;35336;48.400;10.886;2023-06-05T00:53:03;6.63;;;3.50;;
49450;SDS011;35336;48.400;10.886;2023-06-05T00:53:23;4.65;;;3.60;;
49450;SDS011;35336;48.400;10.886;2023-06-05T00:53:39;5.13;;;3.78;;
49450;SDS011;35336;48.400;10.886;2023-06-05T00:53:55;5.72;;;3.92;;
49450;SDS011;35336;48.400;10.886;2023-06-05T00:54:11;5.63;;;3.77;;
49450;SDS011;35336;48.400;10.886;2023-06-05T00:54:29;5.38;;;3.47;;
49450;SDS011;35336;48.400;10.886;2023-06-05T00:54:47;5.37;;;3.53;;
49450;SDS011;35336;48.400;10.886;2023-06-05T00:55:02;9.93;;;3.55;;
49450;SDS011;35336;48.400;10.886;2023-06-05T00:55:18;9.80;;;3.28;;
49450;SDS011;35336;48.400;10.886;2023-06-05T00:55:34;4.60;;;3.28;;
49450;SDS011;35336;48.400;10.886;2023-06-05T00:55:50;3.92;;;3.33;;
49450;SDS011;35336;48.400;10.886;2023-06-05T00:56:08;6.13;;;3.60;;
49450;SDS011;35336;48.400;10.886;2023-06-05T00:56:24;6.97;;;3.83;;
49450;SDS011;35336;48.400;10.886;2023-06-05T00:56:42;5.60;;;3.70;;
49450;SDS011;35336;48.400;10.886;2023-06-05T00:56:58;6.22;;;3.60;;
49450;SDS011;35336;48.400;10.886;2023-06-05T00:57:17;10.50;;;3.60;;
49450;SDS011;35336;48.400;10.886;2023-06-05T00:57:33;10.13;;;3.70;;
49450;SDS011;35336;48.400;10.886;2023-06-05T00:57:48;5.65;;;3.75;;
49450;SDS011;35336;48.400;10.886;2023-06-05T00:58:04;6.40;;;3.77;;
49450;SDS011;35336;48.400;10.886;2023-06-05T00:58:19;6.63;;;3.88;;
49450;SDS011;35336;48.400;10.886;2023-06-05T00:58:35;6.60;;;3.90;;
49450;SDS011;35336;48.400;10.886;2023-06-05T00:58:53;7.00;;;3.83;;
49450;SDS011;35336;48.400;10.886;2023-06-05T00:59:09;5.50;;;3.70;;
49450;SDS011;35336;48.400;10.886;2023-06-05T00:59:25;4.57;;;3.43;;
49450;SDS011;35336;48.400;10.886;2023-06-05T00:59:41;5.00;;;3.80;;
49450;SDS011;35336;48.400;10.886;2023-06-05T00:59:56;5.70;;;3.83;;
49450;SDS011;35336;48.400;10.886;2023-06-05T01:00:12;5.83;;;3.63;;
49450;SDS011;35336;48.400;10.886;2023-06-05T01:00:33;5.13;;;3.75;;
49450;SDS011;35336;48.400;10.886;2023-06-05T01:00:48;4.47;;;3.53;;
49450;SDS011;35336;48.400;10.886;2023-06-05T01:01:04;5.70;;;3.65;;
49450;SDS011;35336;48.400;10.886;2023-06-05T01:01:20;5.63;;;3.72;;
49450;SDS011;35336;48.400;10.886;2023-06-05T01:01:35;5.35;;;3.58;;
49450;SDS011;35336;48.400;10.886;2023-06-05T01:01:53;5.22;;;3.60;;
49450;SDS011;35336;48.400;10.886;2023-06-05T01:02:08;5.00;;;3.80;;
49450;SDS011;35336;48.400;10.886;2023-06-05T01:02:23;4.93;;;3.63;;
49450;SDS011;35336;48.400;10.886;2023-06-05T01:02:43;4.40;;;3.67;;
49450;SDS011;35336;48.400;10.886;2023-06-05T01:03:01;4.82;;;3.58;;
49450;SDS011;35336;48.400;10.886;2023-06-05T01:03:16;5.65;;;3.70;;
49450;SDS011;35336;48.400;10.886;2023-06-05T01:03:32;6.38;;;3.78;;
49450;SDS011;35336;48.400;10.886;2023-06-05T01:03:47;7.47;;;3.90;;
49450;SDS011;35336;48.400;10.886;2023-06-05T01:04:03;6.85;;;3.90;;
49450;SDS011;35336;48.400;10.886;2023-06-05T01:04:18;6.87;;;3.57;;
49450;SDS011;35336;48.400;10.886;2023-06-05T01:04:34;9.38;;;3.40;;
49450;SDS011;35336;48.400;10.886;2023-06-05T01:04:49;8.53;;;3.60;;
49450;SDS011;35336;48.400;10.886;2023-06-05T01:05:07;6.78;;;3.63;;
49450;SDS011;35336;48.400;10.886;2023-06-05T01:05:23;7.05;;;3.60;;
49450;SDS011;35336;48.400;10.886;2023-06-05T01:05:40;12.02;;;3.63;;
49450;SDS011;35336;48.400;10.886;2023-06-05T01:05:58;11.13;;;3.67;;
49450;SDS011;35336;48.400;10.886;2023-06-05T01:06:13;4.38;;;3.70;;
49450;SDS011;35336;48.400;10.886;2023-06-05T01:06:31;6.07;;;3.80;;
49450;SDS011;35336;48.400;10.886;2023-06-05T01:06:48;8.43;;;3.50;;
49450;SDS011;35336;48.400;10.886;2023-06-05T01:07:03;8.87;;;3.70;;
49450;SDS011;35336;48.400;10.886;2023-06-05T01:07:18;6.55;;;3.80;;
49450;SDS011;35336;48.400;10.886;2023-06-05T01:07:36;5.45;;;3.53;;
49450;SDS011;35336;48.400;10.886;2023-06-05T01:07:54;6.15;;;3.65;;
49450;SDS011;35336;48.400;10.886;2023-06-05T01:08:11;6.75;;;3.60;;
49450;SDS011;35336;48.400;10.886;2023-06-05T01:08:26;6.07;;;3.70;;
49450;SDS011;35336;48.400;10.886;2023-06-05T01:08:44;4.37;;;3.60;;
49450;SDS011;35336;48.400;10.886;2023-06-05T01:09:02;4.57;;;3.20;;
49450;SDS011;35336;48.400;10.886;2023-06-05T01:09:17;5.43;;;3.13;;
49450;SDS011;35336;48.400;10.886;2023-06-05T01:09:33;5.97;;;3.60;;
49450;SDS011;35336;48.400;10.886;2023-06-05T01:09:50;5.23;;;3.50;;
49450;SDS011;35336;48.400;10.886;2023-06-05T01:10:06;4.40;;;3.33;;
49450;SDS011;35336;48.400;10.886;2023-06-05T01:10:25;6.38;;;3.60;;
49450;SDS011;35336;48.400;10.886;2023-06-05T01:10:40;5.45;;;3.40;;
49450;SDS011;35336;48.400;10.886;2023-06-05T01:10:58;5.43;;;3.70;;
49450;SDS011;35336;48.400;10.886;2023-06-05T01:11:22;4.80;;;3.63;;
49450;SDS011;35336;48.400;10.886;2023-06-05T01:12:03;9.25;;;3.60;;
49450;SDS011;35336;48.400;10.886;2023-06-05T01:12:27;5.90;;;3.30;;
49450;SDS011;35336;48.400;10.886;2023-06-05T01:13:29;5.85;;;3.03;;
49450;SDS011;35336;48.400;10.886;2023-06-05T01:14:30;3.88;;;3.30;;
49450;SDS011;35336;48.400;10.886;2023-06-05T01:14:51;5.28;;;3.47;;
49450;SDS011;35336;48.400;10.886;2023-06-05T01:15:11;7.15;;;3.75;;
49450;SDS011;35336;48.400;10.886;2023-06-05T01:15:28;7.65;;;3.75;;
49450;SDS011;35336;48.400;10.886;2023-06-05T01:15:44;6.53;;;3.40;;
49450;SDS011;35336;48.400;10.886;2023-06-05T01:16:02;7.55;;;3.70;;
49450;SDS011;35336;48.400;10.886;2023-06-05T01:16:23;5.82;;;3.38;;
49450;SDS011;35336;48.400;10.886;2023-06-05T01:16:39;5.68;;;3.45;;
49450;SDS011;35336;48.400;10.886;2023-06-05T01:16:55;8.37;;;3.70;;
49450;SDS011;35336;48.400;10.886;2023-06-05T01:17:12;8.48;;;3.60;;
49450;SDS011;35336;48.400;10.886;2023-06-05T01:17:30;7.03;;;3.33;;
49450;SDS011;35336;48.400;10.886;2023-06-05T01:17:46;6.78;;;3.03;;
49450;SDS011;35336;48.400;10.886;2023-06-05T01:18:01;6.68;;;3.20;;
49450;SDS011;35336;48.400;10.886;2023-06-05T01:18:17;6.60;;;3.27;;
49450;SDS011;35336;48.400;10.886;2023-06-05T01:18:32;5.47;;;3.20;;
49450;SDS011;35336;48.400;10.886;2023-06-05T01:18:48;3.80;;;3.07;;
49450;SDS011;35336;48.400;10.886;2023-06-05T01:19:03;3.78;;;3.15;;
49450;SDS011;35336;48.400;10.886;2023-06-05T01:19:20;6.10;;;3.50;;
49450;SDS011;35336;48.400;10.886;2023-06-05T01:19:36;6.10;;;3.17;;
49450;SDS011;35336;48.400;10.886;2023-06-05T01:19:52;5.50;;;3.07;;
49450;SDS011;35336;48.400;10.886;2023-06-05T01:20:07;6.57;;;3.40;;
49450;SDS011;35336;48.400;10.886;2023-06-05T01:20:23;5.60;;;3.45;;
49450;SDS011;35336;48.400;10.886;2023-06-05T01:20:39;4.00;;;3.30;;
49450;SDS011;35336;48.400;10.886;2023-06-05T01:20:59;5.63;;;3.35;;
49450;SDS011;35336;48.400;10.886;2023-06-05T01:21:17;7.32;;;3.30;;
49450;SDS011;35336;48.400;10.886;2023-06-05T01:21:34;7.07;;;3.17;;
49450;SDS011;35336;48.400;10.886;2023-06-05T01:21:49;4.22;;;3.03;;
49450;SDS011;35336;48.400;10.886;2023-06-05T01:22:05;3.95;;;3.03;;
49450;SDS011;35336;48.400;10.886;2023-06-05T01:22:24;4.30;;;3.10;;
49450;SDS011;35336;48.400;10.886;2023-06-05T01:22:46;5.03;;;3.20;;
49450;SDS011;35336;48.400;10.886;2023-06-05T01:23:03;4.30;;;3.15;;
49450;SDS011;35336;48.400;10.886;2023-06-05T01:23:19;4.93;;;3.03;;
49450;SDS011;35336;48.400;10.886;2023-06-05T01:23:37;4.50;;;2.92;;
49450;SDS011;35336;48.400;10.886;2023-06-05T01:23:52;4.93;;;3.20;;
49450;SDS011;35336;48.400;10.886;2023-06-05T01:24:07;5.07;;;3.37;;
49450;SDS011;35336;48.400;10.886;2023-06-05T01:24:28;4.57;;;3.70;;
49450;SDS011;35336;48.400;10.886;2023-06-05T01:24:43;4.93;;;3.53;;
49450;SDS011;35336;48.400;10.886;2023-06-05T01:25:01;4.77;;;3.30;;
49450;SDS011;35336;48.400;10.886;2023-06-05T01:25:17;4.43;;;3.20;;
49450;SDS011;35336;48.400;10.886;2023-06-05T01:25:33;4.78;;;3.20;;
49450;SDS011;35336;48.400;10.886;2023-06-05T01:25:49;4.43;;;3.10;;
49450;SDS011;35336;48.400;10.886;2023-06-05T01:26:04;5.95;;;3.13;;
49450;SDS011;35336;48.400;10.886;2023-06-05T01:26:25;7.43;;;3.30;;
49450;SDS011;35336;48.400;10.886;2023-06-05T01:26:48;5.40;;;3.30;;
49450;SDS011;35336;48.400;10.886;2023-06-05T01:27:44;7.38;;;3.38;;
49450;SDS011;35336;48.400;10.886;2023-06-05T01:28:37;3.97;;;2.88;;
49450;SDS011;35336;48.400;10.886;2023-06-05T01:28:55;4.32;;;3.20;;
49450;SDS011;35336;48.400;10.886;2023-06-05T01:29:13;4.47;;;3.05;;
49450;SDS011;35336;48.400;10.886;2023-06-05T01:29:34;6.20;;;2.83;;
49450;SDS011;35336;48.400;10.886;2023-06-05T01:30:10;6.45;;;3.03;;
49450;SDS011;35336;48.400;10.886;2023-06-05T01:31:08;5.25;;;3.22;;
49450;SDS011;35336;48.400;10.886;2023-06-05T01:31:26;4.13;;;3.38;;
49450;SDS011;35336;48.400;10.886;2023-06-05T01:31:43;4.28;;;3.22;;
49450;SDS011;35336;48.400;10.886;2023-06-05T01:32:06;4.25;;;3.08;;
49450;SDS011;35336;48.400;10.886;2023-06-05T01:32:54;5.13;;;2.88;;
49450;SDS011;35336;48.400;10.886;2023-06-05T01:33:20;5.40;;;3.15;;
49450;SDS011;35336;48.400;10.886;2023-06-05T01:33:43;7.15;;;3.22;;
49450;SDS011;35336;48.400;10.886;2023-06-05T01:34:02;7.85;;;3.22;;
49450;SDS011;35336;48.400;10.886;2023-06-05T01:34:20;5.55;;;3.08;;
49450;SDS011;35336;48.400;10.886;2023-06-05T01:34:36;5.60;;;3.20;;
49450;SDS011;35336;48.400;10.886;2023-06-05T01:34:53;5.30;;;3.10;;
49450;SDS011;35336;48.400;10.886;2023-06-05T01:35:10;4.28;;;2.83;;
49450;SDS011;35336;48.400;10.886;2023-06-05T01:35:26;4.40;;;2.90;;
49450;SDS011;35336;48.400;10.886;2023-06-05T01:35:43;5.50;;;3.17;;
49450;SDS011;35336;48.400;10.886;2023-06-05T01:36:01;5.43;;;3.20;;
49450;SDS011;35336;48.400;10.886;2023-06-05T01:36:20;4.15;;;2.90;;
49450;SDS011;35336;48.400;10.886;2023-06-05T01:36:36;3.63;;;2.83;;
49450;SDS011;35336;48.400;10.886;2023-06-05T01:36:53;5.65;;;3.08;;
49450;SDS011;35336;48.400;10.886;2023-06-05T01:37:11;9.45;;;3.28;;
49450;SDS011;35336;48.400;10.886;2023-06-05T01:37:27;6.35;;;3.13;;
49450;SDS011;35336;48.400;10.886;2023-06-05T01:37:44;6.43;;;3.17;;
49450;SDS011;35336;48.400;10.886;2023-06-05T01:38:02;6.40;;;3.10;;
49450;SDS011;35336;48.400;10.886;2023-06-05T01:38:19;5.00;;;3.20;;
49450;SDS011;35336;48.400;10.886;2023-06-05T01:38:35;3.88;;;2.88;;
49450;SDS011;35336;48.400;10.886;2023-06-05T01:38:54;4.00;;;2.75;;
49450;SDS011;35336;48.400;10.886;2023-06-05T01:39:11;6.40;;;3.13;;
49450;SDS011;35336;48.400;10.886;2023-06-05T01:39:27;5.70;;;3.08;;
49450;SDS011;35336;48.400;10.886;2023-06-05T01:39:45;5.43;;;2.80;;
49450;SDS011;35336;48.400;10.886;2023-06-05T01:40:02;3.97;;;2.78;;
49450;SDS011;35336;48.400;10.886;2023-06-05T01:40:20;2.67;;;2.40;;
49450;SDS011;35336;48.400;10.886;2023-06-05T01:40:37;4.28;;;2.78;;
49450;SDS011;35336;48.400;10.886;2023-06-05T01:40:53;4.35;;;3.22;;
49450;SDS011;35336;48.400;10.886;2023-06-05T01:41:11;5.07;;;2.90;;
49450;SDS011;35336;48.400;10.886;2023-06-05T01:41:27;7.35;;;2.75;;
49450;SDS011;35336;48.400;10.886;2023-06-05T01:41:43;8.70;;;2.80;;
49450;SDS011;35336;48.400;10.886;2023-06-05T01:41:59;5.43;;;2.95;;
49450;SDS011;35336;48.400;10.886;2023-06-05T01:42:15;3.93;;;3.03;;
49450;SDS011;35336;48.400;10.886;2023-06-05T01:42:31;6.15;;;3.15;;
49450;SDS011;35336;48.400;10.886;2023-06-05T01:42:47;6.28;;;2.92;;
49450;SDS011;35336;48.400;10.886;2023-06-05T01:43:05;4.90;;;2.83;;
49450;SDS011;35336;48.400;10.886;2023-06-05T01:43:25;5.75;;;2.90;;
49450;SDS011;35336;48.400;10.886;2023-06-05T01:43:40;7.70;;;3.17;;